EKRK/RKE METAR and TAF weather

Enter ICAO airport designator
Station Type Date Time Source
EKRK METAR 2018/01/21 12:20 UTC NOAA

EKRK 211220Z AUTO 29003KT 4500NDV BR BKN003/// OVC005/// 01/00 Q1014


Station Type Date Time Source
EKRK Decoded METAR 2018/01/21 12:20 UTC NOAA

Koebenhavn / Roskilde, Denmark (EKRK) 55-35N 012-08E 44M
Jan 21, 2018 - 07:20 AM EST / 2018.01.21 1220 UTC
Wind: from the WNW (290 degrees) at 3 MPH (3 KT):0
Sky conditions: overcast
Weather: mist
Temperature: 33 F (1 C)
Dew Point: 32 F (0 C)
Relative Humidity: 93%
Pressure (altimeter): 29.94 in. Hg (1014 hPa)
ob: EKRK 211220Z AUTO 29003KT 4500NDV BR BKN003/// OVC005/// 01/00 Q1014
cycle: 12

Station Type Date Time Source
EKRK TAF UTC NOAA

Error!


Example: see airport list